createdAt,value
2023-02-26T00:01:40.924Z,99081.73
2023-02-26T00:04:10.042Z,99085.19
2023-02-26T00:06:39.638Z,99093.49
2023-02-26T00:09:07.845Z,99088.31
2023-02-26T00:11:36.798Z,99083.83
2023-02-26T00:14:10.492Z,99092.73
2023-02-26T00:16:40.788Z,99099.00
2023-02-26T00:19:10.749Z,99091.93
2023-02-26T00:21:39.836Z,99091.13
2023-02-26T00:24:08.365Z,99089.16
2023-02-26T00:34:16.896Z,99118.84
2023-02-26T00:37:24.805Z,99119.98
2023-02-26T00:40:21.933Z,99142.70
2023-02-26T00:42:50.633Z,99147.88
2023-02-26T00:45:20.142Z,99147.39
2023-02-26T00:48:11.488Z,99139.77
2023-02-26T00:51:02.447Z,99135.21
2023-02-26T00:53:36.339Z,99127.02
2023-02-26T00:56:04.421Z,99129.55
2023-02-26T00:58:33.349Z,99117.78
2023-02-26T01:01:01.823Z,99113.46
2023-02-26T01:03:32.324Z,99132.85
2023-02-26T01:06:01.658Z,99144.17
2023-02-26T01:08:47.645Z,99140.79
2023-02-26T01:11:18.269Z,99135.89
2023-02-26T01:13:46.970Z,99143.17
2023-02-26T01:16:22.856Z,99161.39
2023-02-26T01:18:56.344Z,99162.93
2023-02-26T01:21:35.597Z,99171.39
2023-02-26T01:24:09.502Z,99189.73
2023-02-26T01:26:37.748Z,99191.40
2023-02-26T01:29:06.838Z,99187.79
2023-02-26T01:32:10.659Z,99199.01
2023-02-26T01:34:45.390Z,99191.73
2023-02-26T01:37:22.688Z,99198.90
2023-02-26T01:40:17.848Z,99213.95
2023-02-26T01:42:47.003Z,99216.06
2023-02-26T01:45:17.502Z,99223.54
2023-02-26T01:47:52.223Z,99226.42
2023-02-26T01:50:22.528Z,99201.20
2023-02-26T01:52:51.156Z,99203.64
2023-02-26T01:55:24.740Z,99222.88
2023-02-26T01:57:54.161Z,99225.38
2023-02-26T02:00:23.336Z,99220.52
2023-02-26T02:02:55.137Z,99230.32
2023-02-26T02:05:35.749Z,99247.20
2023-02-26T02:08:05.582Z,99270.17
2023-02-26T02:10:33.949Z,99282.61
2023-02-26T02:13:08.161Z,99297.94
2023-02-26T02:15:45.279Z,99308.75
2023-02-26T02:18:24.592Z,99322.62
2023-02-26T02:21:15.204Z,99336.67
2023-02-26T02:24:06.306Z,99336.01
2023-02-26T02:26:59.205Z,99338.41
2023-02-26T02:29:58.457Z,99347.04
2023-02-26T02:32:40.229Z,99349.35
2023-02-26T02:35:18.051Z,99349.05
2023-02-26T02:38:08.446Z,99345.92
2023-02-26T02:40:43.113Z,99339.00
2023-02-26T02:43:18.824Z,99339.09
2023-02-26T02:45:50.700Z,99342.54
2023-02-26T02:48:25.552Z,99343.95
2023-02-26T02:51:02.145Z,99349.00
2023-02-26T02:53:48.083Z,99353.48
2023-02-26T02:56:22.928Z,99351.66
2023-02-26T02:58:56.508Z,99336.98
2023-02-26T03:01:26.430Z,99341.21
2023-02-26T03:04:08.741Z,99354.45
2023-02-26T03:06:38.654Z,99368.30
2023-02-26T03:09:08.239Z,99373.77
2023-02-26T03:11:37.259Z,99380.41
2023-02-26T03:14:06.224Z,99378.08
2023-02-26T03:17:00.229Z,99382.16
2023-02-26T03:20:05.270Z,99390.64
2023-02-26T03:22:43.772Z,99390.29
2023-02-26T03:26:01.832Z,99387.46
2023-02-26T03:28:39.098Z,99376.54
2023-02-26T03:31:18.129Z,99377.47
2023-02-26T03:34:38.044Z,99384.40
2023-02-26T03:37:15.919Z,99392.60
2023-02-26T03:39:47.381Z,99396.71
2023-02-26T03:42:18.536Z,99397.77
2023-02-26T03:44:57.158Z,99389.30
2023-02-26T03:47:25.837Z,99391.30
2023-02-26T03:50:00.158Z,99402.61
2023-02-26T03:52:30.323Z,99406.31
2023-02-26T03:55:16.361Z,99400.08
2023-02-26T03:58:02.903Z,99399.40
2023-02-26T04:00:57.578Z,99410.84
2023-02-26T04:03:34.770Z,99410.20
2023-02-26T04:06:03.352Z,99415.66
2023-02-26T04:08:32.854Z,99416.60
2023-02-26T04:11:06.665Z,99413.89
2023-02-26T04:13:35.992Z,99406.09
2023-02-26T04:16:06.289Z,99400.79
2023-02-26T04:18:34.845Z,99403.19
2023-02-26T04:21:03.765Z,99408.41
2023-02-26T04:23:32.246Z,99406.33
2023-02-26T04:26:00.655Z,99402.27
2023-02-26T04:28:30.341Z,99404.95
2023-02-26T04:30:58.942Z,99417.72
2023-02-26T04:33:27.503Z,99423.55
2023-02-26T04:35:56.235Z,99426.67
2023-02-26T04:38:24.571Z,99433.46
2023-02-26T04:40:53.255Z,99446.83
2023-02-26T04:43:21.756Z,99451.17
2023-02-26T04:53:39.717Z,99475.29
2023-02-26T04:56:09.229Z,99478.94
2023-02-26T04:58:37.707Z,99491.09
2023-02-26T05:01:10.295Z,99493.45
2023-02-26T05:03:38.360Z,99504.06
2023-02-26T05:06:07.170Z,99507.80
2023-02-26T05:08:42.420Z,99504.99
2023-02-26T05:11:10.836Z,99516.55
2023-02-26T05:13:39.306Z,99524.36
2023-02-26T05:16:15.505Z,99533.66
2023-02-26T05:18:44.204Z,99533.83
2023-02-26T05:21:13.040Z,99539.28
2023-02-26T05:23:41.689Z,99543.29
2023-02-26T05:33:40.217Z,99560.00
2023-02-26T05:36:08.610Z,99563.73
2023-02-26T05:38:36.882Z,99564.91
2023-02-26T05:41:05.615Z,99565.19
2023-02-26T05:43:34.244Z,99572.63
2023-02-26T05:46:02.674Z,99573.59
2023-02-26T05:48:33.813Z,99575.62
2023-02-26T05:51:03.008Z,99575.00
2023-02-26T05:53:31.506Z,99573.92
2023-02-26T05:56:00.033Z,99575.04
2023-02-26T05:58:34.249Z,99578.38
2023-02-26T06:01:02.729Z,99577.48
2023-02-26T06:03:31.124Z,99580.21
2023-02-26T06:05:59.177Z,99581.09
2023-02-26T06:08:27.267Z,99585.55
2023-02-26T06:10:55.535Z,99593.40
2023-02-26T06:13:24.551Z,99598.90
2023-02-26T06:15:53.933Z,99602.98
2023-02-26T06:18:22.072Z,99609.17
2023-02-26T06:20:50.644Z,99613.30
2023-02-26T06:23:19.165Z,99625.22
2023-02-26T06:25:47.656Z,99632.83
2023-02-26T06:28:17.258Z,99630.63
2023-02-26T06:30:45.892Z,99634.33
2023-02-26T06:33:14.066Z,99639.63
2023-02-26T06:35:42.912Z,99640.58
2023-02-26T06:38:11.022Z,99642.92
2023-02-26T06:40:40.088Z,99644.10
2023-02-26T06:43:08.608Z,99644.41
2023-02-26T06:45:37.189Z,99646.83
2023-02-26T06:48:05.430Z,99648.65
2023-02-26T06:50:33.751Z,99647.50
2023-02-26T06:53:02.081Z,99653.27
2023-02-26T06:55:31.699Z,99651.84
2023-02-26T06:57:59.974Z,99650.63
2023-02-26T07:00:28.866Z,99656.45
2023-02-26T07:02:58.722Z,99663.31
2023-02-26T07:05:28.290Z,99671.35
2023-02-26T07:07:56.938Z,99670.56
2023-02-26T07:10:27.207Z,99668.96
2023-02-26T07:12:55.705Z,99676.83
2023-02-26T07:15:23.875Z,99680.57
2023-02-26T07:17:53.556Z,99682.45
2023-02-26T07:20:23.078Z,99688.45
2023-02-26T07:22:51.782Z,99695.13
2023-02-26T07:25:20.233Z,99695.40
2023-02-26T07:27:48.546Z,99692.95
2023-02-26T07:30:18.640Z,99697.02
2023-02-26T07:32:47.110Z,99698.29
2023-02-26T07:35:15.643Z,99699.30
2023-02-26T07:37:43.967Z,99693.46
2023-02-26T07:40:12.755Z,99692.61
2023-02-26T07:42:42.058Z,99686.09
2023-02-26T07:45:12.096Z,99687.74
2023-02-26T07:47:43.833Z,99692.61
2023-02-26T07:50:12.318Z,99689.80
2023-02-26T07:52:41.854Z,99690.80
2023-02-26T07:55:12.063Z,99689.81
2023-02-26T07:57:40.332Z,99681.15
2023-02-26T08:00:09.938Z,99684.69
2023-02-26T08:02:41.905Z,99689.33
2023-02-26T08:05:10.365Z,99687.53
2023-02-26T08:07:38.498Z,99694.64
2023-02-26T08:10:07.563Z,99696.41
2023-02-26T08:12:36.841Z,99705.23
2023-02-26T08:15:10.433Z,99711.92
2023-02-26T08:17:40.054Z,99709.39
2023-02-26T08:20:09.435Z,99711.17
2023-02-26T08:22:40.145Z,99712.89
2023-02-26T08:25:09.082Z,99715.94
2023-02-26T08:27:37.971Z,99721.90
2023-02-26T08:30:07.796Z,99724.34
2023-02-26T08:32:40.188Z,99725.25
2023-02-26T08:35:10.406Z,99734.36
2023-02-26T08:37:41.853Z,99734.85
2023-02-26T08:40:12.423Z,99740.55
2023-02-26T08:42:41.846Z,99749.27
2023-02-26T08:45:10.484Z,99755.89
2023-02-26T08:47:53.821Z,99752.94
2023-02-26T08:50:25.983Z,99759.80
2023-02-26T08:52:54.478Z,99761.23
2023-02-26T08:55:23.339Z,99766.65
2023-02-26T08:57:52.329Z,99768.67
2023-02-26T09:00:22.140Z,99774.80
2023-02-26T09:02:50.389Z,99777.75
2023-02-26T09:05:20.046Z,99774.73
2023-02-26T09:07:49.540Z,99776.53
2023-02-26T09:10:19.849Z,99777.50
2023-02-26T09:12:48.531Z,99786.86
2023-02-26T09:15:16.919Z,99781.77
2023-02-26T09:17:51.961Z,99784.14
2023-02-26T09:20:20.498Z,99788.58
2023-02-26T09:22:50.553Z,99794.41
2023-02-26T09:25:19.239Z,99791.97
2023-02-26T09:27:47.536Z,99790.18
2023-02-26T09:30:16.415Z,99799.20
2023-02-26T09:32:44.896Z,99809.11
2023-02-26T09:35:13.165Z,99815.48
2023-02-26T09:37:42.576Z,99821.84
2023-02-26T09:40:39.431Z,99830.39
2023-02-26T09:43:37.800Z,99836.33
2023-02-26T09:46:29.831Z,99826.80
2023-02-26T09:49:22.688Z,99829.54
2023-02-26T09:51:58.894Z,99832.96
2023-02-26T09:54:29.581Z,99830.96
2023-02-26T09:57:00.014Z,99834.80
2023-02-26T09:59:30.934Z,99839.66
2023-02-26T10:02:06.186Z,99840.09
2023-02-26T10:04:51.881Z,99835.55
2023-02-26T10:07:27.280Z,99841.26
2023-02-26T10:10:14.039Z,99847.46
2023-02-26T10:12:43.543Z,99853.44
2023-02-26T10:15:23.741Z,99860.36
2023-02-26T10:17:58.054Z,99858.50
2023-02-26T10:20:29.825Z,99863.77
2023-02-26T10:23:16.638Z,99864.92
2023-02-26T10:25:52.209Z,99858.88
2023-02-26T10:28:38.837Z,99864.55
2023-02-26T10:31:47.434Z,99867.43
2023-02-26T10:34:21.857Z,99865.18
2023-02-26T10:37:14.660Z,99863.75
2023-02-26T10:40:37.288Z,99861.52
2023-02-26T10:43:26.859Z,99864.75
2023-02-26T10:46:10.071Z,99871.71
2023-02-26T10:48:52.598Z,99870.63
2023-02-26T10:51:26.321Z,99874.27
2023-02-26T10:54:03.009Z,99879.14
2023-02-26T10:56:32.891Z,99883.38
2023-02-26T10:59:01.058Z,99885.52
2023-02-26T11:01:31.039Z,99891.07
2023-02-26T11:04:00.587Z,99897.80
2023-02-26T11:06:31.531Z,99902.52
2023-02-26T11:09:00.343Z,99902.31
2023-02-26T11:11:51.328Z,99901.61
2023-02-26T11:14:21.949Z,99899.36
2023-02-26T11:16:53.244Z,99901.02
2023-02-26T11:19:28.957Z,99901.67
2023-02-26T11:21:57.156Z,99909.13
2023-02-26T11:24:37.090Z,99916.27
2023-02-26T11:27:06.816Z,99921.63
2023-02-26T11:29:43.989Z,99926.50
2023-02-26T11:32:17.845Z,99933.80
2023-02-26T11:34:52.327Z,99934.30
2023-02-26T11:37:23.226Z,99937.85
2023-02-26T11:40:07.366Z,99943.51
2023-02-26T11:42:36.708Z,99947.01
2023-02-26T11:45:06.111Z,99949.72
2023-02-26T11:47:34.911Z,99956.69
2023-02-26T11:50:05.814Z,99957.55
2023-02-26T11:52:40.667Z,99966.59
2023-02-26T11:55:21.583Z,99971.97
2023-02-26T11:57:56.799Z,99973.90
2023-02-26T12:00:27.113Z,99978.11
2023-02-26T12:03:08.341Z,99979.33
2023-02-26T12:05:37.330Z,99985.46
2023-02-26T12:08:15.592Z,99988.92
2023-02-26T12:10:51.728Z,99987.79
2023-02-26T12:13:41.221Z,99994.02
2023-02-26T12:16:47.191Z,100000.97
2023-02-26T12:19:34.701Z,100004.85
2023-02-26T12:22:40.979Z,100006.58
2023-02-26T12:25:21.986Z,100012.18
2023-02-26T12:28:28.220Z,100011.36
2023-02-26T12:31:15.996Z,100015.16
2023-02-26T12:34:03.515Z,100019.13
2023-02-26T12:37:00.950Z,100025.13
2023-02-26T12:39:38.645Z,100026.86
2023-02-26T12:42:28.840Z,100031.81
2023-02-26T12:45:17.017Z,100038.64
2023-02-26T12:48:05.336Z,100044.11
2023-02-26T12:51:16.139Z,100051.67
2023-02-26T12:53:47.254Z,100063.45
2023-02-26T12:56:34.391Z,100061.45
2023-02-26T12:59:47.309Z,100067.47
2023-02-26T13:02:36.908Z,100070.14
2023-02-26T13:05:11.523Z,100074.13
2023-02-26T13:08:01.521Z,100081.83
2023-02-26T13:10:37.133Z,100085.73
2023-02-26T13:13:08.684Z,100084.33
2023-02-26T13:15:53.859Z,100083.17
2023-02-26T13:18:25.697Z,100088.95
2023-02-26T13:21:06.334Z,100088.88
2023-02-26T13:23:54.719Z,100086.34
2023-02-26T13:26:23.530Z,100088.38
2023-02-26T13:29:14.410Z,100085.28
2023-02-26T13:32:04.636Z,100090.06
2023-02-26T13:34:48.261Z,100092.09
2023-02-26T13:37:39.313Z,100095.79
2023-02-26T13:40:31.001Z,100097.10
2023-02-26T13:43:05.655Z,100102.66
2023-02-26T13:45:49.174Z,100103.21
2023-02-26T13:48:31.215Z,100107.91
2023-02-26T13:51:26.002Z,100111.81
2023-02-26T13:53:58.430Z,100113.00
2023-02-26T13:56:33.078Z,100113.63
2023-02-26T13:59:15.149Z,100113.63
2023-02-26T14:01:56.903Z,100112.27
2023-02-26T14:04:28.097Z,100110.23
2023-02-26T14:07:12.462Z,100113.06
2023-02-26T14:09:48.521Z,100115.00
2023-02-26T14:12:16.554Z,100116.23
2023-02-26T14:15:05.032Z,100111.30
2023-02-26T14:17:39.035Z,100108.56
2023-02-26T14:20:09.174Z,100106.95
2023-02-26T14:22:43.852Z,100107.85
2023-02-26T14:25:22.922Z,100115.17
2023-02-26T14:28:14.966Z,100119.91
2023-02-26T14:30:46.970Z,100119.52
2023-02-26T14:33:17.435Z,100125.21
2023-02-26T14:35:47.780Z,100126.23
2023-02-26T14:38:22.659Z,100126.00
2023-02-26T14:40:55.892Z,100125.29
2023-02-26T14:43:51.832Z,100125.49
2023-02-26T14:46:20.144Z,100121.58
2023-02-26T14:48:54.073Z,100124.17
2023-02-26T14:51:44.608Z,100126.36
2023-02-26T14:54:20.168Z,100135.92
2023-02-26T14:57:04.415Z,100148.35
2023-02-26T14:59:56.234Z,100153.77
2023-02-26T15:02:52.078Z,100156.88
2023-02-26T15:05:27.482Z,100156.95
2023-02-26T15:08:03.880Z,100162.45
2023-02-26T15:11:04.913Z,100165.63
2023-02-26T15:14:04.573Z,100169.56
2023-02-26T15:16:51.339Z,100177.59
2023-02-26T15:19:39.484Z,100181.39
2023-02-26T15:22:22.593Z,100187.15
2023-02-26T15:24:50.886Z,100190.42
2023-02-26T15:27:20.096Z,100196.03
2023-02-26T15:29:49.279Z,100198.23
2023-02-26T15:32:29.072Z,100201.33
2023-02-26T15:35:18.802Z,100202.94
2023-02-26T15:37:51.897Z,100212.76
2023-02-26T15:40:22.744Z,100212.38
2023-02-26T15:42:53.810Z,100219.68
2023-02-26T15:45:31.684Z,100225.35
2023-02-26T15:48:02.178Z,100232.38
2023-02-26T15:50:32.686Z,100238.09
2023-02-26T15:53:02.858Z,100245.73
2023-02-26T15:55:47.230Z,100251.00
2023-02-26T15:58:20.667Z,100254.17
2023-02-26T16:00:54.298Z,100265.27
2023-02-26T16:03:36.511Z,100276.23
2023-02-26T16:06:06.783Z,100278.70
2023-02-26T16:08:39.314Z,100284.30
2023-02-26T16:11:07.665Z,100291.56
2023-02-26T16:13:41.821Z,100297.23
2023-02-26T16:16:16.166Z,100301.39
2023-02-26T16:18:44.596Z,100305.05
2023-02-26T16:21:29.630Z,100311.73
2023-02-26T16:23:58.192Z,100317.89
2023-02-26T16:26:34.853Z,100320.52
2023-02-26T16:29:07.109Z,100326.48
2023-02-26T16:31:37.468Z,100330.45
2023-02-26T16:34:22.703Z,100333.77
2023-02-26T16:36:52.222Z,100330.95
2023-02-26T16:39:25.522Z,100341.91
2023-02-26T16:42:09.913Z,100343.96
2023-02-26T16:44:45.280Z,100346.92
2023-02-26T16:47:13.577Z,100348.89
2023-02-26T16:49:41.851Z,100352.54
2023-02-26T16:52:15.879Z,100357.43
2023-02-26T16:54:44.858Z,100362.64
2023-02-26T16:57:23.115Z,100365.70
2023-02-26T16:59:56.484Z,100361.95
2023-02-26T17:02:26.987Z,100364.52
2023-02-26T17:04:59.498Z,100369.80
2023-02-26T17:07:36.301Z,100371.02
2023-02-26T17:10:09.236Z,100369.70
2023-02-26T17:12:47.178Z,100375.33
2023-02-26T17:15:21.106Z,100378.16
2023-02-26T17:17:51.777Z,100378.77
2023-02-26T17:20:19.956Z,100381.10
2023-02-26T17:22:48.446Z,100378.95
2023-02-26T17:25:17.769Z,100374.53
2023-02-26T17:27:46.241Z,100375.38
2023-02-26T17:30:22.284Z,100374.80
2023-02-26T17:32:50.515Z,100372.26
2023-02-26T17:35:20.365Z,100380.64
2023-02-26T17:37:49.464Z,100382.85
2023-02-26T17:40:27.494Z,100384.15
2023-02-26T17:42:57.384Z,100384.53
2023-02-26T17:45:26.197Z,100389.23
2023-02-26T17:47:54.592Z,100389.46
2023-02-26T17:50:25.679Z,100390.73
2023-02-26T17:52:54.085Z,100392.52
2023-02-26T17:55:22.152Z,100389.40
2023-02-26T17:57:57.709Z,100390.46
2023-02-26T18:00:26.290Z,100395.23
2023-02-26T18:02:55.901Z,100394.73
2023-02-26T18:05:24.179Z,100393.85
2023-02-26T18:07:53.292Z,100390.73
2023-02-26T18:10:25.169Z,100391.48
2023-02-26T18:12:53.593Z,100392.39
2023-02-26T18:15:21.803Z,100393.34
2023-02-26T18:17:50.687Z,100389.80
2023-02-26T18:20:22.651Z,100388.86
2023-02-26T18:22:50.979Z,100392.30
2023-02-26T18:25:39.781Z,100392.02
2023-02-26T18:28:13.856Z,100388.27
2023-02-26T18:30:45.215Z,100384.20
2023-02-26T18:33:17.924Z,100383.66
2023-02-26T18:35:47.340Z,100383.11
2023-02-26T18:38:16.909Z,100386.71
2023-02-26T18:40:48.734Z,100388.13
2023-02-26T18:43:17.289Z,100386.00
2023-02-26T18:45:46.804Z,100386.40
2023-02-26T18:48:16.932Z,100388.52
2023-02-26T18:50:45.701Z,100386.48
2023-02-26T18:53:17.692Z,100386.60
2023-02-26T18:55:46.922Z,100390.02
2023-02-26T18:58:15.454Z,100395.69
2023-02-26T19:00:44.074Z,100402.06
2023-02-26T19:03:13.263Z,100403.27
2023-02-26T19:05:41.287Z,100404.05
2023-02-26T19:08:09.885Z,100415.30
2023-02-26T19:10:39.385Z,100429.70
2023-02-26T19:13:09.376Z,100431.85
2023-02-26T19:15:40.051Z,100426.85
2023-02-26T19:18:08.616Z,100436.98
2023-02-26T19:20:37.715Z,100443.51
2023-02-26T19:23:12.852Z,100450.48
2023-02-26T19:25:42.724Z,100457.29
2023-02-26T19:28:11.453Z,100462.42
2023-02-26T19:30:40.291Z,100469.88
2023-02-26T19:33:08.622Z,100470.83
2023-02-26T19:35:37.326Z,100475.15
2023-02-26T19:38:05.510Z,100478.86
2023-02-26T19:40:33.970Z,100485.21
2023-02-26T19:43:03.321Z,100481.77
2023-02-26T19:45:31.962Z,100482.00
2023-02-26T19:48:00.442Z,100484.83
2023-02-26T19:50:32.503Z,100486.73
2023-02-26T19:53:04.064Z,100495.35
2023-02-26T19:55:33.711Z,100503.88
2023-02-26T19:58:04.001Z,100498.98
2023-02-26T20:00:33.803Z,100493.61
2023-02-26T20:03:02.344Z,100493.14
2023-02-26T20:05:30.980Z,100494.09
2023-02-26T20:07:59.347Z,100494.58
2023-02-26T20:10:29.309Z,100492.02
2023-02-26T20:12:58.688Z,100494.30
2023-02-26T20:15:27.683Z,100494.48
2023-02-26T20:17:56.160Z,100488.86
2023-02-26T20:20:26.479Z,100490.30
2023-02-26T20:22:55.158Z,100494.14
2023-02-26T20:25:23.637Z,100490.35
2023-02-26T20:27:55.589Z,100485.58
2023-02-26T20:30:23.830Z,100484.10
2023-02-26T20:32:52.641Z,100479.30
2023-02-26T20:35:20.927Z,100486.65
2023-02-26T20:37:49.229Z,100485.44
2023-02-26T20:40:18.114Z,100485.11
2023-02-26T20:42:46.444Z,100489.54
2023-02-26T20:45:15.594Z,100498.63
2023-02-26T20:47:44.171Z,100508.21
2023-02-26T20:50:12.775Z,100513.23
2023-02-26T20:52:41.545Z,100508.48
2023-02-26T20:55:10.188Z,100511.64
2023-02-26T20:57:38.541Z,100519.31
2023-02-26T21:00:11.225Z,100517.66
2023-02-26T21:02:40.800Z,100518.70
2023-02-26T21:05:09.789Z,100517.49
2023-02-26T21:07:39.303Z,100520.05
2023-02-26T21:10:10.572Z,100523.38
2023-02-26T21:12:38.821Z,100525.34
2023-02-26T21:15:10.693Z,100538.27
2023-02-26T21:17:40.524Z,100546.13
2023-02-26T21:20:10.501Z,100553.09
2023-02-26T21:22:39.609Z,100561.25
2023-02-26T21:25:08.413Z,100563.66
2023-02-26T21:27:37.194Z,100566.73
2023-02-26T21:30:06.576Z,100570.51
2023-02-26T21:32:35.454Z,100570.16
2023-02-26T21:35:03.960Z,100571.05
2023-02-26T21:37:33.588Z,100575.39
2023-02-26T21:40:01.847Z,100575.88
2023-02-26T21:42:30.509Z,100576.34
2023-02-26T21:44:59.846Z,100569.15
2023-02-26T21:47:28.444Z,100571.23
2023-02-26T21:49:56.806Z,100567.70
2023-02-26T21:52:29.396Z,100570.70
2023-02-26T21:54:57.760Z,100574.52
2023-02-26T21:57:26.452Z,100583.70
2023-02-26T21:59:55.354Z,100587.29
2023-02-26T22:02:23.882Z,100592.80
2023-02-26T22:04:52.008Z,100592.45
2023-02-26T22:07:20.555Z,100596.48
2023-02-26T22:09:52.461Z,100602.73
2023-02-26T22:12:20.915Z,100601.15
2023-02-26T22:14:52.164Z,100605.66
2023-02-26T22:17:22.054Z,100607.77
2023-02-26T22:19:51.993Z,100609.85
2023-02-26T22:22:20.270Z,100603.34
2023-02-26T22:24:48.292Z,100606.66
2023-02-26T22:27:17.346Z,100606.65
2023-02-26T22:29:45.632Z,100607.59
2023-02-26T22:32:14.217Z,100608.64
2023-02-26T22:34:44.214Z,100612.80
2023-02-26T22:37:13.628Z,100614.59
2023-02-26T22:39:42.928Z,100621.08
2023-02-26T22:42:11.128Z,100625.80
2023-02-26T22:44:39.895Z,100626.86
2023-02-26T22:47:09.188Z,100623.21
2023-02-26T22:49:37.417Z,100623.15
2023-02-26T22:52:07.692Z,100626.78
2023-02-26T22:54:38.011Z,100627.40
2023-02-26T22:57:06.505Z,100625.89
2023-02-26T22:59:35.186Z,100631.35
2023-02-26T23:02:06.886Z,100635.33
2023-02-26T23:04:37.931Z,100641.62
2023-02-26T23:07:06.247Z,100640.92
2023-02-26T23:09:36.207Z,100636.91
2023-02-26T23:12:05.175Z,100639.20
2023-02-26T23:14:33.311Z,100630.50
2023-02-26T23:17:02.545Z,100628.77
2023-02-26T23:19:33.383Z,100631.33
2023-02-26T23:22:02.068Z,100646.91
2023-02-26T23:24:30.578Z,100653.66
2023-02-26T23:26:58.730Z,100660.82
2023-02-26T23:29:29.197Z,100658.85
2023-02-26T23:31:57.637Z,100662.62
2023-02-26T23:34:26.514Z,100666.84
2023-02-26T23:36:54.706Z,100672.20
2023-02-26T23:39:23.179Z,100671.37
2023-02-26T23:41:51.457Z,100668.60
2023-02-26T23:44:19.832Z,100668.43
2023-02-26T23:46:48.217Z,100668.80
2023-02-26T23:49:19.368Z,100670.52
2023-02-26T23:51:49.069Z,100673.79
2023-02-26T23:54:17.991Z,100673.88
2023-02-26T23:56:48.287Z,100672.95
2023-02-26T23:59:18.521Z,100664.61
